Details From YGLA - Gladstone
To YBHM - Hamilton I.
Flight Number -
Tags generated
Created
Modified
Stats Distance 247 nm / 457 km
Max Altitude 28,800 ft / 8,778 m
Waypoints 5
Social Downloads 2
Likes 0
Share VATSIM

Download

Looking for another format? Having issues loading an existing format? Contact us
Advertisement - Login to hide

Notes

Basic altitude profile: - Ascent Rate: 2500ft/min - Ascent Speed: 250kts - Cruise Altitude: 35000ft - Cruise Speed: 420kts - Descent Rate: 1500ft/min - Descent Speed: 250kts Options: - Use NATs: no - Use PACOTS: no - Use low airways: no - Use high airways: yes

Route

YGLA GLA Q26 HM YBHM

ID Type Via Altitude Latitude Longitude Leg Dist Tot Dist Heading (true) Name
O YGLA APT - 0 ft / 0 m -23.86947˚ 151.22448˚ - 0 nm - Gladstone
GLA VOR - 400 ft / 122 m -23.86528˚ 151.20444˚ 1 nm 1 nm 283° / 283° GLADSTONE VOR
CAPRI FIX Q26 (AWY-HI) 28,800 ft / 8,778 m -22.26667˚ 150.19000˚ 111 nm 112 nm 330° / 330° -
HM VOR Q26 (AWY-HI) 18,000 ft / 5,486 m -20.35111˚ 148.95583˚ 134 nm 246 nm 329° / 329° HAMILTON ISLAND VOR-DME
O YBHM APT - 0 ft / 0 m -20.35748˚ 148.95164˚ 0 nm 246 nm 212° / 212° Hamilton I.

Altitude Profile

Advertisement - Login to hide

Weather


0- 5 10 15 20 25 30 35+ Temperature / ° C

Clouds and Precipitation
Forecast for 2017-12-13 12:00 UTC. Updated 3 minutes ago

Ground ~20,000 ft ~40,000 ft Winds

YGLA

Details ICAO YGLA (GLT)
Name Gladstone
Region Australia
Timezone Australia/Brisbane (UTC+10.0)
Stats Elevation 64 ft / 20 m (AMSL)
Location -23.869471° 151.224483°
Runways 1
Magnetic Variation 9.524° E

METAR

YGLA 130700Z AUTO 09017KT 9999 // NCD 28/19 Q1011

Decode

TAF

TAF YGLA 122315Z 1300/1312 13010KT 9999 FEW035 FM130200 10016KT 9999 FEW045 FM130900 12010KT 9999 FEW025

Decode

Departure Runways

ID Width Length Bearing (true) Bearing (mag) Surface Threshold Offset Overrun Length
10 98 ft / 30 m 5,354 ft / 1,632 m 110.20° 100.68° Asphalt 0 ft / 0 m 89 ft / 27 m
28 98 ft / 30 m 5,354 ft / 1,632 m 290.20° 280.68° Asphalt 322 ft / 98 m 194 ft / 59 m

YBHM

Details ICAO YBHM (HTI)
Name Hamilton I.
Region Australia
Timezone Australia/Lindeman (UTC+10.0)
Stats Elevation 14 ft / 4 m (AMSL)
Location -20.357481° 148.951639°
Runways 1
Magnetic Variation 8.158° E

METAR

YBHM 130700Z AUTO 13019KT 9999 // NCD 27/21 Q1010

Decode

TAF

Not found

Destination Runways

ID Width Length Bearing (true) Bearing (mag) Surface Threshold Offset Overrun Length
14 148 ft / 45 m 5,792 ft / 1,765 m 143.04° 134.88° Asphalt 0 ft / 0 m 0 ft / 0 m
32 148 ft / 45 m 5,792 ft / 1,765 m 323.03° 314.87° Asphalt 0 ft / 0 m 0 ft / 0 m

Popular Alternatives